createdAt,value
2022-12-11T00:02:15.185Z,76.69
2022-12-11T00:04:42.906Z,77.10
2022-12-11T00:07:11.849Z,76.74
2022-12-11T00:09:39.602Z,76.93
2022-12-11T00:12:07.645Z,77.42
2022-12-11T00:14:35.246Z,76.33
2022-12-11T00:17:02.888Z,76.59
2022-12-11T00:19:30.768Z,76.18
2022-12-11T00:21:58.316Z,77.33
2022-12-11T00:24:27.178Z,76.58
2022-12-11T00:26:54.714Z,77.46
2022-12-11T00:29:22.224Z,76.64
2022-12-11T00:31:49.885Z,76.56
2022-12-11T00:34:17.500Z,75.71
2022-12-11T00:36:45.019Z,76.23
2022-12-11T00:39:12.586Z,75.52
2022-12-11T00:41:41.491Z,75.50
2022-12-11T00:44:09.043Z,76.07
2022-12-11T00:46:36.607Z,76.03
2022-12-11T00:49:04.182Z,76.79
2022-12-11T00:51:31.765Z,75.68
2022-12-11T00:53:59.362Z,76.32
2022-12-11T00:56:26.884Z,76.37
2022-12-11T00:58:55.781Z,75.97
2022-12-11T01:01:26.052Z,76.01
2022-12-11T01:03:54.342Z,76.67
2022-12-11T01:06:24.171Z,75.87
2022-12-11T01:09:13.194Z,75.90
2022-12-11T01:11:41.883Z,75.96
2022-12-11T01:14:11.719Z,75.99
2022-12-11T01:16:39.445Z,75.18
2022-12-11T01:19:07.211Z,75.57
2022-12-11T01:21:34.745Z,75.82
2022-12-11T01:24:02.318Z,75.81
2022-12-11T01:26:30.608Z,75.77
2022-12-11T01:28:58.268Z,76.20
2022-12-11T01:31:27.289Z,75.89
2022-12-11T01:33:55.123Z,76.18
2022-12-11T01:36:24.172Z,76.09
2022-12-11T01:38:53.512Z,75.48
2022-12-11T01:41:22.036Z,75.62
2022-12-11T01:44:02.934Z,75.38
2022-12-11T01:46:33.711Z,74.78
2022-12-11T01:49:03.467Z,74.88
2022-12-11T01:51:34.355Z,74.95
2022-12-11T01:54:07.942Z,74.78
2022-12-11T01:56:37.901Z,74.07
2022-12-11T01:59:08.799Z,75.28
2022-12-11T02:01:40.877Z,75.14
2022-12-11T02:04:10.855Z,75.40
2022-12-11T02:06:40.225Z,74.15
2022-12-11T02:09:11.418Z,74.35
2022-12-11T02:11:48.382Z,73.40
2022-12-11T02:14:25.096Z,74.24
2022-12-11T02:17:00.805Z,73.60
2022-12-11T02:19:46.375Z,73.31
2022-12-11T02:22:23.359Z,74.18
2022-12-11T02:25:03.949Z,74.21
2022-12-11T02:27:41.833Z,73.44
2022-12-11T02:30:14.383Z,74.45
2022-12-11T02:32:46.244Z,74.14
2022-12-11T02:35:19.114Z,74.71
2022-12-11T02:37:48.705Z,74.37
2022-12-11T02:40:25.767Z,73.72
2022-12-11T02:42:57.333Z,73.52
2022-12-11T02:45:29.060Z,74.26
2022-12-11T02:47:58.645Z,73.21
2022-12-11T02:50:27.669Z,73.81
2022-12-11T02:52:58.375Z,73.98
2022-12-11T02:55:27.822Z,73.39
2022-12-11T02:58:03.239Z,73.00
2022-12-11T03:00:32.291Z,73.52
2022-12-11T03:03:00.004Z,73.88
2022-12-11T03:05:28.471Z,73.78
2022-12-11T03:07:56.066Z,74.12
2022-12-11T03:10:24.389Z,73.77
2022-12-11T03:12:54.400Z,73.27
2022-12-11T03:15:27.018Z,73.71
2022-12-11T03:18:05.154Z,74.10
2022-12-11T03:20:37.917Z,73.76
2022-12-11T03:23:16.422Z,73.74
2022-12-11T03:25:51.542Z,74.16
2022-12-11T03:28:23.717Z,74.70
2022-12-11T03:30:54.391Z,73.94
2022-12-11T03:33:27.539Z,73.78
2022-12-11T03:35:57.961Z,73.84
2022-12-11T03:38:32.987Z,73.90
2022-12-11T03:41:03.261Z,73.60
2022-12-11T03:43:32.666Z,74.57
2022-12-11T03:46:01.591Z,74.83
2022-12-11T03:48:35.191Z,74.46
2022-12-11T03:51:06.563Z,74.56
2022-12-11T03:53:35.298Z,74.55
2022-12-11T03:56:05.072Z,74.94
2022-12-11T03:58:33.211Z,74.97
2022-12-11T04:01:00.876Z,75.19
2022-12-11T04:03:29.778Z,74.61
2022-12-11T04:05:57.961Z,74.45
2022-12-11T04:08:25.582Z,74.47
2022-12-11T04:11:13.889Z,74.74
2022-12-11T04:13:42.714Z,74.09
2022-12-11T04:16:09.901Z,73.38
2022-12-11T04:18:55.423Z,73.59
2022-12-11T04:21:40.779Z,74.08
2022-12-11T04:24:17.405Z,73.58
2022-12-11T04:26:46.083Z,73.95
2022-12-11T04:29:13.903Z,74.53
2022-12-11T04:31:41.521Z,74.01
2022-12-11T04:34:10.423Z,74.31
2022-12-11T04:36:38.256Z,73.92
2022-12-11T04:39:06.855Z,74.95
2022-12-11T04:41:35.031Z,74.79
2022-12-11T04:44:02.697Z,75.33
2022-12-11T04:46:30.357Z,75.90
2022-12-11T04:48:58.158Z,76.63
2022-12-11T04:51:27.529Z,76.40
2022-12-11T04:53:55.692Z,76.65
2022-12-11T04:56:23.365Z,77.63
2022-12-11T04:58:51.102Z,77.37
2022-12-11T05:01:21.304Z,77.66
2022-12-11T05:03:49.423Z,78.39
2022-12-11T05:06:17.033Z,78.18
2022-12-11T05:08:46.239Z,78.77
2022-12-11T05:11:16.003Z,78.92
2022-12-11T05:13:44.089Z,78.83
2022-12-11T05:16:13.427Z,78.51
2022-12-11T05:18:41.383Z,78.80
2022-12-11T05:21:11.242Z,78.51
2022-12-11T05:23:39.443Z,79.42
2022-12-11T05:26:10.035Z,79.32
2022-12-11T05:28:39.350Z,79.13
2022-12-11T05:31:09.525Z,79.28
2022-12-11T05:33:37.165Z,79.46
2022-12-11T05:36:05.411Z,79.70
2022-12-11T05:38:33.320Z,79.24
2022-12-11T05:41:02.557Z,79.39
2022-12-11T05:43:33.955Z,79.39
2022-12-11T05:46:07.013Z,79.39
2022-12-11T05:48:34.813Z,78.80
2022-12-11T05:51:03.602Z,78.49
2022-12-11T05:53:31.915Z,79.14
2022-12-11T05:56:02.950Z,78.72
2022-12-11T05:58:31.996Z,78.82
2022-12-11T06:00:59.777Z,78.93
2022-12-11T06:03:27.418Z,78.89
2022-12-11T06:05:55.143Z,78.85
2022-12-11T06:08:22.736Z,78.79
2022-12-11T06:10:51.342Z,78.40
2022-12-11T06:13:19.019Z,78.52
2022-12-11T06:15:47.903Z,78.34
2022-12-11T06:18:15.399Z,79.62
2022-12-11T06:20:42.946Z,80.16
2022-12-11T06:23:10.860Z,79.08
2022-12-11T06:25:39.844Z,79.87
2022-12-11T06:28:07.503Z,79.92
2022-12-11T06:30:38.997Z,80.14
2022-12-11T06:33:08.434Z,79.36
2022-12-11T06:35:41.774Z,80.58
2022-12-11T06:38:10.434Z,80.29
2022-12-11T06:40:38.122Z,79.98
2022-12-11T06:43:05.632Z,79.85
2022-12-11T06:45:33.258Z,80.09
2022-12-11T06:48:00.864Z,79.95
2022-12-11T06:50:29.746Z,80.51
2022-12-11T06:52:57.291Z,80.82
2022-12-11T06:55:24.791Z,81.13
2022-12-11T06:57:52.296Z,80.68
2022-12-11T07:00:19.885Z,80.32
2022-12-11T07:02:47.458Z,81.26
2022-12-11T07:05:15.002Z,81.02
2022-12-11T07:07:43.900Z,81.43
2022-12-11T07:10:11.839Z,80.72
2022-12-11T07:12:39.399Z,81.04
2022-12-11T07:15:07.991Z,81.63
2022-12-11T07:17:35.835Z,81.21
2022-12-11T07:20:03.807Z,81.44
2022-12-11T07:22:31.314Z,81.46
2022-12-11T07:25:00.180Z,81.11
2022-12-11T07:27:28.257Z,82.11
2022-12-11T07:29:55.962Z,82.20
2022-12-11T07:32:23.653Z,82.33
2022-12-11T07:34:52.108Z,82.38
2022-12-11T07:37:19.823Z,82.67
2022-12-11T07:39:48.910Z,83.31
2022-12-11T07:42:17.852Z,82.81
2022-12-11T07:44:45.399Z,83.06
2022-12-11T07:47:13.111Z,83.00
2022-12-11T07:49:44.366Z,83.47
2022-12-11T07:52:11.923Z,83.53
2022-12-11T07:54:39.627Z,83.31
2022-12-11T07:57:13.929Z,83.24
2022-12-11T07:59:42.875Z,83.49
2022-12-11T08:02:11.089Z,82.68
2022-12-11T08:04:38.866Z,83.06
2022-12-11T08:07:06.375Z,82.79
2022-12-11T08:09:33.923Z,82.79
2022-12-11T08:12:01.427Z,82.99
2022-12-11T08:14:28.922Z,82.38
2022-12-11T08:17:00.035Z,82.53
2022-12-11T08:19:27.567Z,83.15
2022-12-11T08:21:55.105Z,82.44
2022-12-11T08:24:22.645Z,83.04
2022-12-11T08:26:50.149Z,83.27
2022-12-11T08:29:17.690Z,82.02
2022-12-11T08:31:45.253Z,82.36
2022-12-11T08:34:14.264Z,82.41
2022-12-11T08:36:42.425Z,82.96
2022-12-11T08:39:09.965Z,81.78
2022-12-11T08:41:38.583Z,81.47
2022-12-11T08:44:07.085Z,81.81
2022-12-11T08:46:35.985Z,82.02
2022-12-11T08:49:03.740Z,81.89
2022-12-11T08:51:32.820Z,81.79
2022-12-11T08:54:01.580Z,80.71
2022-12-11T08:56:30.328Z,80.85
2022-12-11T08:59:00.523Z,81.65
2022-12-11T09:01:29.342Z,80.97
2022-12-11T09:03:57.832Z,80.62
2022-12-11T09:06:28.174Z,78.93
2022-12-11T09:08:59.747Z,78.97
2022-12-11T09:11:29.722Z,79.01
2022-12-11T09:13:59.845Z,77.79
2022-12-11T09:16:30.237Z,78.81
2022-12-11T09:18:59.762Z,78.18
2022-12-11T09:21:29.578Z,78.45
2022-12-11T09:24:00.006Z,78.61
2022-12-11T09:26:30.023Z,78.03
2022-12-11T09:28:58.348Z,77.05
2022-12-11T09:31:27.818Z,76.86
2022-12-11T09:33:57.295Z,76.96
2022-12-11T09:36:25.810Z,76.75
2022-12-11T09:38:53.905Z,77.22
2022-12-11T09:41:35.862Z,76.18
2022-12-11T09:44:17.214Z,76.02
2022-12-11T09:46:46.077Z,75.94
2022-12-11T09:49:24.295Z,75.65
2022-12-11T09:52:03.266Z,74.93
2022-12-11T09:54:30.922Z,74.89
2022-12-11T09:57:10.398Z,74.30
2022-12-11T09:59:49.439Z,74.19
2022-12-11T10:02:31.193Z,74.24
2022-12-11T10:05:11.900Z,74.55
2022-12-11T10:07:49.489Z,74.53
2022-12-11T10:10:27.518Z,74.46
2022-12-11T10:13:04.204Z,72.61
2022-12-11T10:15:38.060Z,72.49
2022-12-11T10:18:10.731Z,72.02
2022-12-11T10:20:41.039Z,71.13
2022-12-11T10:23:11.097Z,71.12
2022-12-11T10:25:42.722Z,70.46
2022-12-11T10:28:14.538Z,70.36
2022-12-11T10:30:48.886Z,70.11
2022-12-11T10:33:22.584Z,70.51
2022-12-11T10:35:52.583Z,70.45
2022-12-11T10:38:26.245Z,70.44
2022-12-11T10:40:56.283Z,69.86
2022-12-11T10:43:35.373Z,70.43
2022-12-11T10:46:03.326Z,69.69
2022-12-11T10:48:30.932Z,69.94
2022-12-11T10:51:02.035Z,70.31
2022-12-11T10:53:30.061Z,70.07
2022-12-11T10:55:59.025Z,69.46
2022-12-11T10:58:29.160Z,69.77
2022-12-11T11:01:15.179Z,69.40
2022-12-11T11:03:54.647Z,70.57
2022-12-11T11:06:23.966Z,71.06
2022-12-11T11:08:53.761Z,70.09
2022-12-11T11:11:25.411Z,71.16
2022-12-11T11:13:53.265Z,71.21
2022-12-11T11:16:23.459Z,71.54
2022-12-11T11:18:54.322Z,71.14
2022-12-11T11:21:24.485Z,71.52
2022-12-11T11:23:53.615Z,70.99
2022-12-11T11:26:22.938Z,71.06
2022-12-11T11:28:53.609Z,70.79
2022-12-11T11:31:31.580Z,70.23
2022-12-11T11:34:03.104Z,70.14
2022-12-11T11:36:32.873Z,71.09
2022-12-11T11:39:21.359Z,71.34
2022-12-11T11:41:55.089Z,69.92
2022-12-11T11:44:26.393Z,70.11
2022-12-11T11:46:59.949Z,69.33
2022-12-11T11:49:45.447Z,70.98
2022-12-11T11:52:18.571Z,70.86
2022-12-11T11:54:51.852Z,70.33
2022-12-11T11:57:24.342Z,73.86
2022-12-11T11:59:56.440Z,73.82
2022-12-11T12:02:25.532Z,74.93
2022-12-11T12:04:53.207Z,73.47
2022-12-11T12:07:35.878Z,69.26
2022-12-11T12:10:15.610Z,67.64
2022-12-11T12:12:50.192Z,67.87
2022-12-11T12:15:36.353Z,65.54
2022-12-11T12:18:16.416Z,65.89
2022-12-11T12:20:49.019Z,65.18
2022-12-11T12:23:43.695Z,66.33
2022-12-11T12:26:18.048Z,65.66
2022-12-11T12:28:53.772Z,64.87
2022-12-11T12:31:36.761Z,64.57
2022-12-11T12:34:11.451Z,64.53
2022-12-11T12:36:46.549Z,64.71
2022-12-11T12:39:22.738Z,65.28
2022-12-11T12:42:01.259Z,64.78
2022-12-11T12:44:38.227Z,64.96
2022-12-11T12:47:12.910Z,65.16
2022-12-11T12:49:44.369Z,64.73
2022-12-11T12:52:16.637Z,64.12
2022-12-11T12:55:07.401Z,64.15
2022-12-11T12:57:37.023Z,64.32
2022-12-11T13:00:12.578Z,63.77
2022-12-11T13:02:50.794Z,64.19
2022-12-11T13:05:25.187Z,64.30
2022-12-11T13:07:55.533Z,65.87
2022-12-11T13:10:29.459Z,65.59
2022-12-11T13:12:57.567Z,64.93
2022-12-11T13:15:28.295Z,66.06
2022-12-11T13:17:56.168Z,66.08
2022-12-11T13:20:27.058Z,65.95
2022-12-11T13:22:57.699Z,66.91
2022-12-11T13:25:31.894Z,67.94
2022-12-11T13:28:07.430Z,67.23
2022-12-11T13:30:35.623Z,66.88
2022-12-11T13:33:06.999Z,67.27
2022-12-11T13:35:36.328Z,66.88
2022-12-11T13:38:09.159Z,68.30
2022-12-11T13:40:41.973Z,68.72
2022-12-11T13:43:19.302Z,68.29
2022-12-11T13:45:50.389Z,68.12
2022-12-11T13:48:23.759Z,67.14
2022-12-11T13:50:54.182Z,67.26
2022-12-11T13:53:22.681Z,67.95
2022-12-11T13:55:57.789Z,67.91
2022-12-11T13:58:25.962Z,68.19
2022-12-11T14:01:05.419Z,68.54
2022-12-11T14:03:33.894Z,68.60
2022-12-11T14:06:04.189Z,69.22
2022-12-11T14:08:35.393Z,70.91
2022-12-11T14:11:03.447Z,69.92
2022-12-11T14:13:34.974Z,68.96
2022-12-11T14:16:02.840Z,70.56
2022-12-11T14:18:33.743Z,71.18
2022-12-11T14:21:04.852Z,70.91
2022-12-11T14:23:33.809Z,70.74
2022-12-11T14:26:03.667Z,70.77
2022-12-11T14:28:37.990Z,70.17
2022-12-11T14:31:07.710Z,70.66
2022-12-11T14:33:41.514Z,71.60
2022-12-11T14:36:11.353Z,71.84
2022-12-11T14:38:44.235Z,71.12
2022-12-11T14:41:17.848Z,71.78
2022-12-11T14:43:49.163Z,71.95
2022-12-11T14:46:19.427Z,72.23
2022-12-11T14:48:56.063Z,72.03
2022-12-11T14:51:31.560Z,72.22
2022-12-11T14:53:59.662Z,71.95
2022-12-11T14:56:30.555Z,72.72
2022-12-11T14:59:03.393Z,73.68
2022-12-11T15:01:32.854Z,73.63
2022-12-11T15:04:06.336Z,73.98
2022-12-11T15:06:43.429Z,73.08
2022-12-11T15:09:18.766Z,73.81
2022-12-11T15:11:47.823Z,73.17
2022-12-11T15:14:17.750Z,72.90
2022-12-11T15:16:45.548Z,74.17
2022-12-11T15:19:20.934Z,73.96
2022-12-11T15:21:50.316Z,74.40
2022-12-11T15:24:28.331Z,74.61
2022-12-11T15:27:00.924Z,74.76
2022-12-11T15:29:34.107Z,74.33
2022-12-11T15:32:04.708Z,73.40
2022-12-11T15:34:36.260Z,73.30
2022-12-11T15:37:05.209Z,73.24
2022-12-11T15:39:32.746Z,73.63
2022-12-11T15:42:00.291Z,73.63
2022-12-11T15:44:27.861Z,74.33
2022-12-11T15:46:55.511Z,74.09
2022-12-11T15:49:24.488Z,74.12
2022-12-11T15:51:52.539Z,74.03
2022-12-11T15:54:21.396Z,74.64
2022-12-11T15:56:48.968Z,75.47
2022-12-11T15:59:16.608Z,76.06
2022-12-11T16:01:44.768Z,75.99
2022-12-11T16:04:12.488Z,75.59
2022-12-11T16:06:45.122Z,75.79
2022-12-11T16:09:12.745Z,76.27
2022-12-11T16:11:41.574Z,75.54
2022-12-11T16:14:09.164Z,75.49
2022-12-11T16:16:36.675Z,76.71
2022-12-11T16:19:04.171Z,76.16
2022-12-11T16:21:31.741Z,75.90
2022-12-11T16:23:59.231Z,76.37
2022-12-11T16:26:27.150Z,76.11
2022-12-11T16:28:56.017Z,75.96
2022-12-11T16:31:23.570Z,75.82
2022-12-11T16:33:51.168Z,75.80
2022-12-11T16:36:20.890Z,75.66
2022-12-11T16:38:53.555Z,76.15
2022-12-11T16:41:22.676Z,76.00
2022-12-11T16:43:50.508Z,76.32
2022-12-11T16:46:20.257Z,77.06
2022-12-11T16:48:48.063Z,76.96
2022-12-11T16:51:15.839Z,76.77
2022-12-11T16:53:43.357Z,76.25
2022-12-11T16:56:10.927Z,75.93
2022-12-11T16:58:38.526Z,76.49
2022-12-11T17:01:11.969Z,76.85
2022-12-11T17:03:41.831Z,77.56
2022-12-11T17:06:10.868Z,77.61
2022-12-11T17:08:38.860Z,77.52
2022-12-11T17:11:07.184Z,78.29
2022-12-11T17:13:36.214Z,77.53
2022-12-11T17:16:06.171Z,77.69
2022-12-11T17:18:33.933Z,77.84
2022-12-11T17:21:06.668Z,78.30
2022-12-11T17:23:34.393Z,78.39
2022-12-11T17:26:02.477Z,78.17
2022-12-11T17:28:30.807Z,77.69
2022-12-11T17:30:59.178Z,78.00
2022-12-11T17:33:26.806Z,78.20
2022-12-11T17:35:54.685Z,78.11
2022-12-11T17:38:23.569Z,78.09
2022-12-11T17:40:51.131Z,77.70
2022-12-11T17:43:18.716Z,77.60
2022-12-11T17:45:49.333Z,77.75
2022-12-11T17:48:17.081Z,77.38
2022-12-11T17:50:46.538Z,78.27
2022-12-11T17:53:15.911Z,77.99
2022-12-11T17:55:45.777Z,77.68
2022-12-11T17:58:15.010Z,77.89
2022-12-11T18:00:44.412Z,78.06
2022-12-11T18:03:12.966Z,77.80
2022-12-11T18:05:42.810Z,78.52
2022-12-11T18:08:13.431Z,78.93
2022-12-11T18:10:41.375Z,78.25
2022-12-11T18:13:10.295Z,78.05
2022-12-11T18:15:38.122Z,77.74
2022-12-11T18:18:06.130Z,78.78
2022-12-11T18:20:35.141Z,77.74
2022-12-11T18:23:03.011Z,78.39
2022-12-11T18:25:30.642Z,77.84
2022-12-11T18:27:59.565Z,77.59
2022-12-11T18:30:29.220Z,78.99
2022-12-11T18:32:56.846Z,78.96
2022-12-11T18:35:25.315Z,78.62
2022-12-11T18:37:52.891Z,78.47
2022-12-11T18:40:20.718Z,78.10
2022-12-11T18:42:48.247Z,78.11
2022-12-11T18:45:15.937Z,77.78
2022-12-11T18:47:44.965Z,77.35
2022-12-11T18:50:12.590Z,77.86
2022-12-11T18:52:40.155Z,78.50
2022-12-11T18:55:08.426Z,78.33
2022-12-11T18:57:36.033Z,78.46
2022-12-11T19:00:07.323Z,79.16
2022-12-11T19:02:35.096Z,79.11
2022-12-11T19:05:04.391Z,78.98
2022-12-11T19:07:32.314Z,79.31
2022-12-11T19:09:59.880Z,80.09
2022-12-11T19:12:27.394Z,80.75
2022-12-11T19:14:55.062Z,80.87
2022-12-11T19:17:22.642Z,81.26
2022-12-11T19:19:50.301Z,81.80
2022-12-11T19:22:19.255Z,81.42
2022-12-11T19:24:46.774Z,81.87
2022-12-11T19:27:14.352Z,82.43
2022-12-11T19:29:41.934Z,82.56
2022-12-11T19:32:09.595Z,82.13
2022-12-11T19:34:38.351Z,81.82
2022-12-11T19:37:06.222Z,81.47
2022-12-11T19:39:35.371Z,81.35
2022-12-11T19:42:02.879Z,80.18
2022-12-11T19:44:30.384Z,81.05
2022-12-11T19:46:58.037Z,81.06
2022-12-11T19:49:25.635Z,80.27
2022-12-11T19:51:53.189Z,79.51
2022-12-11T19:54:20.773Z,80.25
2022-12-11T19:56:49.681Z,80.18
2022-12-11T19:59:18.502Z,80.12
2022-12-11T20:01:47.964Z,80.22
2022-12-11T20:04:17.422Z,80.27
2022-12-11T20:06:47.178Z,80.96
2022-12-11T20:09:15.437Z,80.71
2022-12-11T20:11:45.264Z,81.37
2022-12-11T20:14:21.176Z,81.19
2022-12-11T20:19:36.498Z,82.69
2022-12-11T20:22:04.048Z,82.45
2022-12-11T20:24:31.548Z,82.37
2022-12-11T20:26:59.050Z,82.07
2022-12-11T20:29:28.005Z,81.99
2022-12-11T20:31:55.776Z,81.65
2022-12-11T20:34:23.360Z,80.68
2022-12-11T20:36:52.665Z,80.45
2022-12-11T20:39:20.486Z,82.12
2022-12-11T20:41:48.179Z,82.92
2022-12-11T20:44:15.882Z,82.92
2022-12-11T20:46:44.745Z,82.27
2022-12-11T20:49:13.094Z,81.26
2022-12-11T20:51:41.805Z,80.56
2022-12-11T20:54:09.585Z,80.22
2022-12-11T20:56:37.149Z,80.13
2022-12-11T20:59:05.113Z,78.80
2022-12-11T21:01:34.752Z,79.64
2022-12-11T21:04:03.748Z,78.74
2022-12-11T21:06:33.998Z,79.94
2022-12-11T21:09:03.667Z,79.81
2022-12-11T21:11:31.612Z,80.18
2022-12-11T21:13:59.221Z,80.04
2022-12-11T21:16:27.221Z,79.96
2022-12-11T21:18:55.731Z,79.58
2022-12-11T21:21:24.632Z,79.96
2022-12-11T21:23:52.266Z,79.05
2022-12-11T21:26:20.017Z,79.57
2022-12-11T21:28:47.631Z,79.41
2022-12-11T21:31:18.041Z,80.25
2022-12-11T21:33:46.239Z,80.60
2022-12-11T21:36:15.540Z,79.29
2022-12-11T21:38:45.771Z,79.55
2022-12-11T21:41:15.840Z,79.77
2022-12-11T21:44:14.608Z,79.58
2022-12-11T21:46:32.025Z,80.19
2022-12-11T21:49:00.520Z,80.01
2022-12-11T21:51:36.133Z,80.24
2022-12-11T21:54:07.356Z,80.78
2022-12-11T21:56:34.960Z,80.30
2022-12-11T21:59:02.682Z,80.35
2022-12-11T22:01:34.741Z,80.76
2022-12-11T22:04:02.962Z,80.61
2022-12-11T22:06:30.565Z,80.09
2022-12-11T22:08:58.352Z,80.37
2022-12-11T22:11:29.258Z,80.35
2022-12-11T22:13:57.678Z,81.00
2022-12-11T22:16:25.930Z,80.74
2022-12-11T22:18:53.686Z,80.72
2022-12-11T22:21:21.425Z,80.76
2022-12-11T22:23:49.120Z,80.19
2022-12-11T22:26:18.802Z,81.04
2022-12-11T22:28:47.789Z,80.80
2022-12-11T22:31:19.607Z,81.49
2022-12-11T22:33:47.296Z,81.25
2022-12-11T22:36:14.896Z,80.92
2022-12-11T22:38:42.395Z,80.94
2022-12-11T22:41:11.271Z,79.60
2022-12-11T22:43:38.862Z,79.84
2022-12-11T22:46:07.846Z,79.07
2022-12-11T22:48:35.451Z,79.69
2022-12-11T22:51:07.265Z,80.05
2022-12-11T22:53:34.854Z,79.37
2022-12-11T22:56:05.850Z,79.78
2022-12-11T22:58:34.076Z,80.20
2022-12-11T23:01:01.855Z,79.31
2022-12-11T23:03:30.870Z,80.02
2022-12-11T23:06:03.347Z,79.77
2022-12-11T23:08:33.016Z,80.49
2022-12-11T23:11:00.731Z,80.84
2022-12-11T23:13:28.345Z,80.71
2022-12-11T23:15:55.902Z,81.21
2022-12-11T23:18:24.510Z,80.85
2022-12-11T23:20:53.524Z,81.71
2022-12-11T23:23:21.105Z,81.57
2022-12-11T23:25:48.648Z,82.46
2022-12-11T23:28:16.254Z,82.45
2022-12-11T23:30:43.866Z,83.76
2022-12-11T23:33:11.531Z,82.91
2022-12-11T23:35:39.051Z,83.63
2022-12-11T23:38:08.167Z,83.92
2022-12-11T23:40:35.850Z,84.06
2022-12-11T23:43:03.362Z,83.27
2022-12-11T23:45:30.934Z,84.10
2022-12-11T23:47:58.678Z,83.56
2022-12-11T23:50:26.745Z,83.50
2022-12-11T23:52:54.300Z,83.02
2022-12-11T23:55:25.285Z,83.02
2022-12-11T23:57:52.862Z,83.36
